Terminal Aerodrome Forecast
Issued by NWS

Home | Current Version | Previous Version | Text Only | Print | Product List | Glossary On
Versions: 1 2 3 4 5 6 7 8 9 10 11 12 13 14 15 16 17 18 19 20 21 22 23 24 25 26 27 28 29
000
FTUS41 KOKX 190541
TAFHPN
TAF
KHPN 190541Z 1906/2006 VRB03KT P6SM SKC
     FM191500 21007KT P6SM FEW250
     FM191900 20009G17KT P6SM FEW250
     FM192200 21006KT P6SM FEW250
     FM200100 VRB04KT P6SM SKC
      AMD NOT SKED=

USA.gov is the U.S. government's official web portal to all federal, state and local government web resources and services.